sensor_id;sensor_type;location;lat;lon;timestamp;P1;durP1;ratioP1;P2;durP2;ratioP2
9773;SDS011;4926;42.670;23.316;2024-01-25T00:01:40;22.00;;;10.88;;
9773;SDS011;4926;42.670;23.316;2024-01-25T00:04:06;21.00;;;10.82;;
9773;SDS011;4926;42.670;23.316;2024-01-25T00:06:31;24.35;;;10.80;;
9773;SDS011;4926;42.670;23.316;2024-01-25T00:08:57;21.85;;;10.80;;
9773;SDS011;4926;42.670;23.316;2024-01-25T00:11:22;21.75;;;11.48;;
9773;SDS011;4926;42.670;23.316;2024-01-25T00:13:47;25.75;;;10.77;;
9773;SDS011;4926;42.670;23.316;2024-01-25T00:16:13;24.23;;;11.13;;
9773;SDS011;4926;42.670;23.316;2024-01-25T00:18:38;21.30;;;10.40;;
9773;SDS011;4926;42.670;23.316;2024-01-25T00:21:04;24.38;;;10.85;;
9773;SDS011;4926;42.670;23.316;2024-01-25T00:23:29;21.98;;;10.43;;
9773;SDS011;4926;42.670;23.316;2024-01-25T00:25:55;28.40;;;12.00;;
9773;SDS011;4926;42.670;23.316;2024-01-25T00:28:24;197.50;;;52.60;;
9773;SDS011;4926;42.670;23.316;2024-01-25T00:30:50;136.15;;;44.10;;
9773;SDS011;4926;42.670;23.316;2024-01-25T00:33:15;116.97;;;39.00;;
9773;SDS011;4926;42.670;23.316;2024-01-25T00:35:41;115.03;;;40.47;;
9773;SDS011;4926;42.670;23.316;2024-01-25T00:38:06;119.65;;;38.30;;
9773;SDS011;4926;42.670;23.316;2024-01-25T00:40:32;155.95;;;45.55;;
9773;SDS011;4926;42.670;23.316;2024-01-25T00:42:58;105.85;;;34.95;;
9773;SDS011;4926;42.670;23.316;2024-01-25T00:45:24;94.85;;;34.00;;
9773;SDS011;4926;42.670;23.316;2024-01-25T00:47:50;101.72;;;36.58;;
9773;SDS011;4926;42.670;23.316;2024-01-25T00:50:16;73.72;;;28.27;;
9773;SDS011;4926;42.670;23.316;2024-01-25T00:52:44;61.40;;;25.95;;
9773;SDS011;4926;42.670;23.316;2024-01-25T00:55:10;65.22;;;26.95;;
9773;SDS011;4926;42.670;23.316;2024-01-25T00:57:36;51.35;;;20.13;;
9773;SDS011;4926;42.670;23.316;2024-01-25T01:00:05;38.97;;;16.95;;
9773;SDS011;4926;42.670;23.316;2024-01-25T01:02:35;34.92;;;17.92;;
9773;SDS011;4926;42.670;23.316;2024-01-25T01:05:14;36.97;;;16.98;;
9773;SDS011;4926;42.670;23.316;2024-01-25T01:07:40;27.85;;;14.18;;
9773;SDS011;4926;42.670;23.316;2024-01-25T01:10:06;30.08;;;13.32;;
9773;SDS011;4926;42.670;23.316;2024-01-25T01:12:33;29.27;;;13.02;;
9773;SDS011;4926;42.670;23.316;2024-01-25T01:14:58;22.63;;;11.52;;
9773;SDS011;4926;42.670;23.316;2024-01-25T01:17:24;27.30;;;10.35;;
9773;SDS011;4926;42.670;23.316;2024-01-25T01:19:50;19.77;;;9.30;;
9773;SDS011;4926;42.670;23.316;2024-01-25T01:22:15;19.83;;;9.07;;
9773;SDS011;4926;42.670;23.316;2024-01-25T01:24:41;21.10;;;9.27;;
9773;SDS011;4926;42.670;23.316;2024-01-25T01:27:06;25.08;;;12.40;;
9773;SDS011;4926;42.670;23.316;2024-01-25T01:29:32;25.17;;;13.10;;
9773;SDS011;4926;42.670;23.316;2024-01-25T01:31:57;32.67;;;13.45;;
9773;SDS011;4926;42.670;23.316;2024-01-25T01:34:23;27.73;;;12.25;;
9773;SDS011;4926;42.670;23.316;2024-01-25T01:36:48;25.38;;;12.05;;
9773;SDS011;4926;42.670;23.316;2024-01-25T01:39:14;24.48;;;12.93;;
9773;SDS011;4926;42.670;23.316;2024-01-25T01:41:39;29.33;;;13.77;;
9773;SDS011;4926;42.670;23.316;2024-01-25T01:44:05;27.02;;;13.52;;
9773;SDS011;4926;42.670;23.316;2024-01-25T01:46:34;26.33;;;12.68;;
9773;SDS011;4926;42.670;23.316;2024-01-25T01:49:02;23.90;;;11.07;;
9773;SDS011;4926;42.670;23.316;2024-01-25T01:51:29;23.63;;;10.05;;
9773;SDS011;4926;42.670;23.316;2024-01-25T01:53:56;15.68;;;8.27;;
9773;SDS011;4926;42.670;23.316;2024-01-25T01:56:23;13.35;;;7.95;;
9773;SDS011;4926;42.670;23.316;2024-01-25T01:58:52;19.77;;;8.70;;
9773;SDS011;4926;42.670;23.316;2024-01-25T02:01:18;16.05;;;8.07;;
9773;SDS011;4926;42.670;23.316;2024-01-25T02:03:45;14.02;;;8.13;;
9773;SDS011;4926;42.670;23.316;2024-01-25T02:06:11;13.95;;;7.50;;
9773;SDS011;4926;42.670;23.316;2024-01-25T02:08:37;7.50;;;5.05;;
9773;SDS011;4926;42.670;23.316;2024-01-25T02:11:02;8.02;;;5.28;;
9773;SDS011;4926;42.670;23.316;2024-01-25T02:13:28;6.32;;;3.70;;
9773;SDS011;4926;42.670;23.316;2024-01-25T02:15:54;4.75;;;2.78;;
9773;SDS011;4926;42.670;23.316;2024-01-25T02:18:19;2.92;;;2.42;;
9773;SDS011;4926;42.670;23.316;2024-01-25T02:20:44;4.60;;;1.95;;
9773;SDS011;4926;42.670;23.316;2024-01-25T02:23:10;1.98;;;1.50;;
9773;SDS011;4926;42.670;23.316;2024-01-25T02:25:36;2.60;;;1.83;;
9773;SDS011;4926;42.670;23.316;2024-01-25T02:28:01;2.75;;;2.22;;
9773;SDS011;4926;42.670;23.316;2024-01-25T02:30:27;3.85;;;2.50;;
9773;SDS011;4926;42.670;23.316;2024-01-25T02:32:52;3.40;;;2.97;;
9773;SDS011;4926;42.670;23.316;2024-01-25T02:35:18;13.13;;;6.30;;
9773;SDS011;4926;42.670;23.316;2024-01-25T02:37:43;12.00;;;7.05;;
9773;SDS011;4926;42.670;23.316;2024-01-25T02:40:09;10.88;;;6.65;;
9773;SDS011;4926;42.670;23.316;2024-01-25T02:42:35;6.68;;;5.13;;
9773;SDS011;4926;42.670;23.316;2024-01-25T02:45:00;11.68;;;5.80;;
9773;SDS011;4926;42.670;23.316;2024-01-25T02:47:26;11.20;;;5.47;;
9773;SDS011;4926;42.670;23.316;2024-01-25T02:49:51;5.38;;;4.50;;
9773;SDS011;4926;42.670;23.316;2024-01-25T02:52:17;3.97;;;3.20;;
9773;SDS011;4926;42.670;23.316;2024-01-25T02:54:42;2.65;;;2.42;;
9773;SDS011;4926;42.670;23.316;2024-01-25T02:57:07;2.90;;;1.90;;
9773;SDS011;4926;42.670;23.316;2024-01-25T02:59:33;1.60;;;1.50;;
9773;SDS011;4926;42.670;23.316;2024-01-25T03:01:58;1.73;;;1.25;;
9773;SDS011;4926;42.670;23.316;2024-01-25T03:04:24;2.08;;;1.65;;
9773;SDS011;4926;42.670;23.316;2024-01-25T03:06:50;1.00;;;1.00;;
9773;SDS011;4926;42.670;23.316;2024-01-25T03:09:15;2.35;;;1.25;;
9773;SDS011;4926;42.670;23.316;2024-01-25T03:11:41;1.63;;;1.08;;
9773;SDS011;4926;42.670;23.316;2024-01-25T03:14:06;1.35;;;1.10;;
9773;SDS011;4926;42.670;23.316;2024-01-25T03:16:32;1.17;;;0.85;;
9773;SDS011;4926;42.670;23.316;2024-01-25T03:18:57;0.88;;;0.55;;
9773;SDS011;4926;42.670;23.316;2024-01-25T03:21:23;1.25;;;0.77;;
9773;SDS011;4926;42.670;23.316;2024-01-25T03:23:48;0.40;;;0.28;;
9773;SDS011;4926;42.670;23.316;2024-01-25T03:26:15;0.82;;;0.82;;
9773;SDS011;4926;42.670;23.316;2024-01-25T03:28:41;0.38;;;0.38;;
9773;SDS011;4926;42.670;23.316;2024-01-25T03:31:06;0.55;;;0.28;;
9773;SDS011;4926;42.670;23.316;2024-01-25T03:33:32;0.55;;;0.50;;
9773;SDS011;4926;42.670;23.316;2024-01-25T03:36:01;0.10;;;0.10;;
9773;SDS011;4926;42.670;23.316;2024-01-25T03:38:27;2.05;;;0.60;;
9773;SDS011;4926;42.670;23.316;2024-01-25T03:40:53;0.70;;;0.70;;
9773;SDS011;4926;42.670;23.316;2024-01-25T03:43:20;0.75;;;0.73;;
9773;SDS011;4926;42.670;23.316;2024-01-25T03:45:45;1.65;;;0.68;;
9773;SDS011;4926;42.670;23.316;2024-01-25T03:48:11;0.80;;;0.80;;
9773;SDS011;4926;42.670;23.316;2024-01-25T03:50:36;0.98;;;0.98;;
9773;SDS011;4926;42.670;23.316;2024-01-25T03:53:02;2.35;;;0.60;;
9773;SDS011;4926;42.670;23.316;2024-01-25T03:55:28;1.40;;;0.82;;
9773;SDS011;4926;42.670;23.316;2024-01-25T03:57:53;1.98;;;0.90;;
9773;SDS011;4926;42.670;23.316;2024-01-25T04:00:19;1.00;;;1.00;;
9773;SDS011;4926;42.670;23.316;2024-01-25T04:02:45;2.60;;;0.98;;
9773;SDS011;4926;42.670;23.316;2024-01-25T04:05:10;1.55;;;1.02;;
9773;SDS011;4926;42.670;23.316;2024-01-25T04:07:36;0.85;;;0.85;;
9773;SDS011;4926;42.670;23.316;2024-01-25T04:10:01;0.70;;;0.70;;
9773;SDS011;4926;42.670;23.316;2024-01-25T04:12:27;1.73;;;0.70;;
9773;SDS011;4926;42.670;23.316;2024-01-25T04:14:53;2.25;;;0.77;;
9773;SDS011;4926;42.670;23.316;2024-01-25T04:17:18;1.38;;;1.00;;
9773;SDS011;4926;42.670;23.316;2024-01-25T04:19:44;5.97;;;2.22;;
9773;SDS011;4926;42.670;23.316;2024-01-25T04:22:09;1.42;;;0.80;;
9773;SDS011;4926;42.670;23.316;2024-01-25T04:24:35;3.63;;;0.90;;
9773;SDS011;4926;42.670;23.316;2024-01-25T04:27:01;1.13;;;0.82;;
9773;SDS011;4926;42.670;23.316;2024-01-25T04:29:26;2.78;;;0.80;;
9773;SDS011;4926;42.670;23.316;2024-01-25T04:31:52;2.17;;;1.00;;
9773;SDS011;4926;42.670;23.316;2024-01-25T04:34:18;0.75;;;0.75;;
9773;SDS011;4926;42.670;23.316;2024-01-25T04:36:43;1.52;;;1.42;;
9773;SDS011;4926;42.670;23.316;2024-01-25T04:39:09;3.47;;;2.38;;
9773;SDS011;4926;42.670;23.316;2024-01-25T04:41:35;1.88;;;1.73;;
9773;SDS011;4926;42.670;23.316;2024-01-25T04:44:01;2.15;;;2.00;;
9773;SDS011;4926;42.670;23.316;2024-01-25T04:46:27;6.03;;;1.98;;
9773;SDS011;4926;42.670;23.316;2024-01-25T04:48:52;2.00;;;1.80;;
9773;SDS011;4926;42.670;23.316;2024-01-25T04:51:18;2.17;;;1.98;;
9773;SDS011;4926;42.670;23.316;2024-01-25T04:53:47;2.40;;;1.52;;
9773;SDS011;4926;42.670;23.316;2024-01-25T04:56:13;2.67;;;1.98;;
9773;SDS011;4926;42.670;23.316;2024-01-25T04:58:38;3.80;;;2.40;;
9773;SDS011;4926;42.670;23.316;2024-01-25T05:01:04;2.83;;;2.08;;
9773;SDS011;4926;42.670;23.316;2024-01-25T05:03:32;2.05;;;1.73;;
9773;SDS011;4926;42.670;23.316;2024-01-25T05:05:57;1.98;;;1.70;;
9773;SDS011;4926;42.670;23.316;2024-01-25T05:08:23;2.72;;;1.70;;
9773;SDS011;4926;42.670;23.316;2024-01-25T05:10:48;1.73;;;1.60;;
9773;SDS011;4926;42.670;23.316;2024-01-25T05:13:14;1.23;;;1.20;;
9773;SDS011;4926;42.670;23.316;2024-01-25T05:15:39;1.42;;;1.33;;
9773;SDS011;4926;42.670;23.316;2024-01-25T05:18:05;3.03;;;1.27;;
9773;SDS011;4926;42.670;23.316;2024-01-25T05:20:31;1.80;;;1.38;;
9773;SDS011;4926;42.670;23.316;2024-01-25T05:23:01;1.02;;;1.02;;
9773;SDS011;4926;42.670;23.316;2024-01-25T05:25:27;1.13;;;1.00;;
9773;SDS011;4926;42.670;23.316;2024-01-25T05:27:53;1.45;;;1.17;;
9773;SDS011;4926;42.670;23.316;2024-01-25T05:30:20;3.22;;;1.25;;
9773;SDS011;4926;42.670;23.316;2024-01-25T05:32:46;6.43;;;1.73;;
9773;SDS011;4926;42.670;23.316;2024-01-25T05:35:13;1.20;;;1.10;;
9773;SDS011;4926;42.670;23.316;2024-01-25T05:37:39;0.93;;;0.93;;
9773;SDS011;4926;42.670;23.316;2024-01-25T05:40:05;2.85;;;0.68;;
9773;SDS011;4926;42.670;23.316;2024-01-25T05:42:31;1.45;;;0.80;;
9773;SDS011;4926;42.670;23.316;2024-01-25T05:44:57;0.80;;;0.80;;
9773;SDS011;4926;42.670;23.316;2024-01-25T05:47:23;1.15;;;0.98;;
9773;SDS011;4926;42.670;23.316;2024-01-25T05:49:49;0.95;;;0.80;;
9773;SDS011;4926;42.670;23.316;2024-01-25T05:52:14;1.45;;;1.35;;
9773;SDS011;4926;42.670;23.316;2024-01-25T05:54:40;2.70;;;1.30;;
9773;SDS011;4926;42.670;23.316;2024-01-25T05:57:05;1.10;;;1.00;;
9773;SDS011;4926;42.670;23.316;2024-01-25T05:59:31;1.08;;;0.93;;
9773;SDS011;4926;42.670;23.316;2024-01-25T06:01:57;3.00;;;0.90;;
9773;SDS011;4926;42.670;23.316;2024-01-25T06:04:22;3.15;;;0.93;;
9773;SDS011;4926;42.670;23.316;2024-01-25T06:07:06;1.23;;;1.00;;
9773;SDS011;4926;42.670;23.316;2024-01-25T06:09:31;0.98;;;0.98;;
9773;SDS011;4926;42.670;23.316;2024-01-25T06:11:57;1.42;;;1.33;;
9773;SDS011;4926;42.670;23.316;2024-01-25T06:14:23;3.63;;;1.42;;
9773;SDS011;4926;42.670;23.316;2024-01-25T06:16:49;2.10;;;1.02;;
9773;SDS011;4926;42.670;23.316;2024-01-25T06:19:14;3.03;;;1.05;;
9773;SDS011;4926;42.670;23.316;2024-01-25T06:21:40;3.78;;;1.35;;
9773;SDS011;4926;42.670;23.316;2024-01-25T06:24:06;3.33;;;1.25;;
9773;SDS011;4926;42.670;23.316;2024-01-25T06:26:31;1.42;;;1.27;;
9773;SDS011;4926;42.670;23.316;2024-01-25T06:28:57;1.33;;;1.23;;
9773;SDS011;4926;42.670;23.316;2024-01-25T06:31:23;3.65;;;1.52;;
9773;SDS011;4926;42.670;23.316;2024-01-25T06:33:49;6.47;;;1.33;;
9773;SDS011;4926;42.670;23.316;2024-01-25T06:36:18;3.50;;;2.10;;
9773;SDS011;4926;42.670;23.316;2024-01-25T06:38:44;2.97;;;1.48;;
9773;SDS011;4926;42.670;23.316;2024-01-25T06:41:10;6.28;;;1.45;;
9773;SDS011;4926;42.670;23.316;2024-01-25T06:43:36;2.83;;;1.08;;
9773;SDS011;4926;42.670;23.316;2024-01-25T06:46:01;2.15;;;1.23;;
9773;SDS011;4926;42.670;23.316;2024-01-25T06:48:27;2.67;;;1.40;;
9773;SDS011;4926;42.670;23.316;2024-01-25T06:50:52;1.40;;;1.38;;
9773;SDS011;4926;42.670;23.316;2024-01-25T06:53:18;2.70;;;1.77;;
9773;SDS011;4926;42.670;23.316;2024-01-25T06:55:44;5.53;;;2.15;;
9773;SDS011;4926;42.670;23.316;2024-01-25T06:58:10;3.65;;;2.20;;
9773;SDS011;4926;42.670;23.316;2024-01-25T07:00:35;5.05;;;2.03;;
9773;SDS011;4926;42.670;23.316;2024-01-25T07:03:03;3.45;;;1.42;;
9773;SDS011;4926;42.670;23.316;2024-01-25T07:05:30;2.90;;;2.30;;
9773;SDS011;4926;42.670;23.316;2024-01-25T07:07:58;2.53;;;2.33;;
9773;SDS011;4926;42.670;23.316;2024-01-25T07:10:24;1.70;;;1.52;;
9773;SDS011;4926;42.670;23.316;2024-01-25T07:12:49;6.45;;;2.00;;
9773;SDS011;4926;42.670;23.316;2024-01-25T07:15:16;1.35;;;1.10;;
9773;SDS011;4926;42.670;23.316;2024-01-25T07:17:42;8.52;;;1.40;;
9773;SDS011;4926;42.670;23.316;2024-01-25T07:20:08;2.03;;;1.23;;
9773;SDS011;4926;42.670;23.316;2024-01-25T07:22:33;2.03;;;1.02;;
9773;SDS011;4926;42.670;23.316;2024-01-25T07:24:59;6.57;;;1.60;;
9773;SDS011;4926;42.670;23.316;2024-01-25T07:27:25;18.02;;;1.65;;
9773;SDS011;4926;42.670;23.316;2024-01-25T07:29:50;3.05;;;1.23;;
9773;SDS011;4926;42.670;23.316;2024-01-25T07:32:15;3.90;;;1.30;;
9773;SDS011;4926;42.670;23.316;2024-01-25T07:34:43;3.40;;;1.20;;
9773;SDS011;4926;42.670;23.316;2024-01-25T07:37:09;3.03;;;1.42;;
9773;SDS011;4926;42.670;23.316;2024-01-25T07:39:36;5.93;;;2.15;;
9773;SDS011;4926;42.670;23.316;2024-01-25T07:42:02;2.63;;;1.58;;
9773;SDS011;4926;42.670;23.316;2024-01-25T07:44:27;2.92;;;1.70;;
9773;SDS011;4926;42.670;23.316;2024-01-25T07:46:53;3.88;;;1.40;;
9773;SDS011;4926;42.670;23.316;2024-01-25T07:49:19;4.13;;;1.17;;
9773;SDS011;4926;42.670;23.316;2024-01-25T07:51:44;3.47;;;1.55;;
9773;SDS011;4926;42.670;23.316;2024-01-25T07:54:10;8.93;;;1.67;;
9773;SDS011;4926;42.670;23.316;2024-01-25T07:56:35;5.88;;;1.85;;
9773;SDS011;4926;42.670;23.316;2024-01-25T07:59:01;3.22;;;2.15;;
9773;SDS011;4926;42.670;23.316;2024-01-25T08:01:26;6.93;;;1.92;;
9773;SDS011;4926;42.670;23.316;2024-01-25T08:03:52;6.47;;;1.92;;
9773;SDS011;4926;42.670;23.316;2024-01-25T08:06:17;6.65;;;1.70;;
9773;SDS011;4926;42.670;23.316;2024-01-25T08:08:43;9.93;;;1.77;;
9773;SDS011;4926;42.670;23.316;2024-01-25T08:11:08;3.92;;;1.35;;
9773;SDS011;4926;42.670;23.316;2024-01-25T08:13:34;5.00;;;1.80;;
9773;SDS011;4926;42.670;23.316;2024-01-25T08:15:59;4.25;;;1.70;;
9773;SDS011;4926;42.670;23.316;2024-01-25T08:18:25;2.58;;;1.50;;
9773;SDS011;4926;42.670;23.316;2024-01-25T08:20:54;4.10;;;1.73;;
9773;SDS011;4926;42.670;23.316;2024-01-25T08:23:20;4.38;;;1.90;;
9773;SDS011;4926;42.670;23.316;2024-01-25T08:25:45;3.95;;;1.60;;
9773;SDS011;4926;42.670;23.316;2024-01-25T08:28:11;4.25;;;1.60;;
9773;SDS011;4926;42.670;23.316;2024-01-25T08:30:36;3.03;;;1.55;;
9773;SDS011;4926;42.670;23.316;2024-01-25T08:33:02;3.15;;;1.90;;
9773;SDS011;4926;42.670;23.316;2024-01-25T08:35:28;3.78;;;1.63;;
9773;SDS011;4926;42.670;23.316;2024-01-25T08:37:55;6.00;;;1.95;;
9773;SDS011;4926;42.670;23.316;2024-01-25T08:40:21;8.32;;;2.00;;
9773;SDS011;4926;42.670;23.316;2024-01-25T08:42:46;4.63;;;1.60;;
9773;SDS011;4926;42.670;23.316;2024-01-25T08:45:12;4.93;;;1.48;;
9773;SDS011;4926;42.670;23.316;2024-01-25T08:47:38;3.72;;;1.98;;
9773;SDS011;4926;42.670;23.316;2024-01-25T08:50:04;3.03;;;1.35;;
9773;SDS011;4926;42.670;23.316;2024-01-25T08:52:35;5.05;;;1.35;;
9773;SDS011;4926;42.670;23.316;2024-01-25T08:55:01;4.85;;;1.83;;
9773;SDS011;4926;42.670;23.316;2024-01-25T08:57:26;5.00;;;3.00;;
9773;SDS011;4926;42.670;23.316;2024-01-25T08:59:52;1.85;;;1.75;;
9773;SDS011;4926;42.670;23.316;2024-01-25T09:02:19;2.10;;;1.73;;
9773;SDS011;4926;42.670;23.316;2024-01-25T09:04:47;8.35;;;2.22;;
9773;SDS011;4926;42.670;23.316;2024-01-25T09:07:12;9.35;;;2.05;;
9773;SDS011;4926;42.670;23.316;2024-01-25T09:09:38;7.70;;;2.35;;
9773;SDS011;4926;42.670;23.316;2024-01-25T09:12:03;4.32;;;1.77;;
9773;SDS011;4926;42.670;23.316;2024-01-25T09:14:30;6.65;;;2.05;;
9773;SDS011;4926;42.670;23.316;2024-01-25T09:16:57;1.98;;;1.45;;
9773;SDS011;4926;42.670;23.316;2024-01-25T09:19:22;8.90;;;2.80;;
9773;SDS011;4926;42.670;23.316;2024-01-25T09:21:50;4.85;;;2.72;;
9773;SDS011;4926;42.670;23.316;2024-01-25T09:24:18;5.05;;;1.90;;
9773;SDS011;4926;42.670;23.316;2024-01-25T09:26:43;5.25;;;2.17;;
9773;SDS011;4926;42.670;23.316;2024-01-25T09:29:09;3.17;;;2.00;;
9773;SDS011;4926;42.670;23.316;2024-01-25T09:31:34;5.10;;;1.70;;
9773;SDS011;4926;42.670;23.316;2024-01-25T09:34:00;10.43;;;2.15;;
9773;SDS011;4926;42.670;23.316;2024-01-25T09:36:26;3.35;;;2.03;;
9773;SDS011;4926;42.670;23.316;2024-01-25T09:38:51;6.25;;;2.75;;
9773;SDS011;4926;42.670;23.316;2024-01-25T09:41:17;3.63;;;2.03;;
9773;SDS011;4926;42.670;23.316;2024-01-25T09:43:42;4.10;;;2.13;;
9773;SDS011;4926;42.670;23.316;2024-01-25T09:46:08;9.30;;;2.40;;
9773;SDS011;4926;42.670;23.316;2024-01-25T09:48:38;6.63;;;2.50;;
9773;SDS011;4926;42.670;23.316;2024-01-25T09:51:05;3.33;;;2.38;;
9773;SDS011;4926;42.670;23.316;2024-01-25T09:53:31;5.20;;;3.85;;
9773;SDS011;4926;42.670;23.316;2024-01-25T09:58:39;6.72;;;3.42;;
9773;SDS011;4926;42.670;23.316;2024-01-25T10:01:09;10.48;;;3.42;;
9773;SDS011;4926;42.670;23.316;2024-01-25T10:03:37;10.20;;;4.07;;
9773;SDS011;4926;42.670;23.316;2024-01-25T10:08:31;3.30;;;2.55;;
9773;SDS011;4926;42.670;23.316;2024-01-25T10:10:57;8.98;;;2.88;;
9773;SDS011;4926;42.670;23.316;2024-01-25T10:13:22;6.28;;;3.10;;
9773;SDS011;4926;42.670;23.316;2024-01-25T10:15:48;3.90;;;2.97;;
9773;SDS011;4926;42.670;23.316;2024-01-25T10:18:14;6.05;;;3.03;;
9773;SDS011;4926;42.670;23.316;2024-01-25T10:20:42;9.00;;;3.13;;
9773;SDS011;4926;42.670;23.316;2024-01-25T10:23:08;4.75;;;2.55;;
9773;SDS011;4926;42.670;23.316;2024-01-25T10:25:39;3.83;;;2.90;;
9773;SDS011;4926;42.670;23.316;2024-01-25T10:28:05;3.78;;;1.95;;
9773;SDS011;4926;42.670;23.316;2024-01-25T10:30:31;5.85;;;2.45;;
9773;SDS011;4926;42.670;23.316;2024-01-25T10:32:58;4.05;;;2.75;;
9773;SDS011;4926;42.670;23.316;2024-01-25T10:35:24;3.17;;;2.67;;
9773;SDS011;4926;42.670;23.316;2024-01-25T10:37:51;7.22;;;2.78;;
9773;SDS011;4926;42.670;23.316;2024-01-25T10:40:18;6.93;;;2.70;;
9773;SDS011;4926;42.670;23.316;2024-01-25T10:42:44;6.97;;;3.00;;
9773;SDS011;4926;42.670;23.316;2024-01-25T10:45:10;7.68;;;3.03;;
9773;SDS011;4926;42.670;23.316;2024-01-25T10:47:36;6.50;;;4.13;;
9773;SDS011;4926;42.670;23.316;2024-01-25T10:50:03;10.45;;;4.07;;
9773;SDS011;4926;42.670;23.316;2024-01-25T10:52:34;6.00;;;3.47;;
9773;SDS011;4926;42.670;23.316;2024-01-25T10:55:01;7.60;;;3.55;;
9773;SDS011;4926;42.670;23.316;2024-01-25T10:57:36;6.43;;;3.03;;
9773;SDS011;4926;42.670;23.316;2024-01-25T11:00:05;7.32;;;2.38;;
9773;SDS011;4926;42.670;23.316;2024-01-25T11:02:38;5.88;;;2.75;;
9773;SDS011;4926;42.670;23.316;2024-01-25T11:07:47;7.03;;;2.58;;
9773;SDS011;4926;42.670;23.316;2024-01-25T11:10:17;9.05;;;2.58;;
9773;SDS011;4926;42.670;23.316;2024-01-25T11:15:22;7.38;;;2.70;;
9773;SDS011;4926;42.670;23.316;2024-01-25T11:17:54;6.90;;;2.65;;
9773;SDS011;4926;42.670;23.316;2024-01-25T11:20:20;9.73;;;2.92;;
9773;SDS011;4926;42.670;23.316;2024-01-25T11:23:03;6.30;;;3.08;;
9773;SDS011;4926;42.670;23.316;2024-01-25T11:25:35;6.88;;;2.50;;
9773;SDS011;4926;42.670;23.316;2024-01-25T11:30:29;6.47;;;2.53;;
9773;SDS011;4926;42.670;23.316;2024-01-25T11:32:56;3.63;;;2.63;;
9773;SDS011;4926;42.670;23.316;2024-01-25T11:35:21;5.38;;;2.63;;
9773;SDS011;4926;42.670;23.316;2024-01-25T11:37:47;2.28;;;2.03;;
9773;SDS011;4926;42.670;23.316;2024-01-25T11:40:14;4.47;;;2.47;;
9773;SDS011;4926;42.670;23.316;2024-01-25T11:42:43;4.80;;;1.88;;
9773;SDS011;4926;42.670;23.316;2024-01-25T11:45:11;3.42;;;1.88;;
9773;SDS011;4926;42.670;23.316;2024-01-25T11:47:37;5.43;;;1.80;;
9773;SDS011;4926;42.670;23.316;2024-01-25T11:50:04;4.70;;;1.70;;
9773;SDS011;4926;42.670;23.316;2024-01-25T11:52:32;12.30;;;2.10;;
9773;SDS011;4926;42.670;23.316;2024-01-25T11:54:59;4.65;;;1.63;;
9773;SDS011;4926;42.670;23.316;2024-01-25T11:59:54;17.33;;;2.15;;
9773;SDS011;4926;42.670;23.316;2024-01-25T12:02:21;5.35;;;1.90;;
9773;SDS011;4926;42.670;23.316;2024-01-25T12:04:47;4.53;;;1.83;;
9773;SDS011;4926;42.670;23.316;2024-01-25T12:07:12;6.85;;;1.80;;
9773;SDS011;4926;42.670;23.316;2024-01-25T12:09:39;8.60;;;2.30;;
9773;SDS011;4926;42.670;23.316;2024-01-25T12:12:05;5.10;;;1.92;;
9773;SDS011;4926;42.670;23.316;2024-01-25T12:14:31;3.03;;;1.98;;
9773;SDS011;4926;42.670;23.316;2024-01-25T12:16:56;3.15;;;2.03;;
9773;SDS011;4926;42.670;23.316;2024-01-25T12:19:22;5.38;;;1.75;;
9773;SDS011;4926;42.670;23.316;2024-01-25T12:21:47;4.47;;;2.15;;
9773;SDS011;4926;42.670;23.316;2024-01-25T12:24:13;7.18;;;2.17;;
9773;SDS011;4926;42.670;23.316;2024-01-25T12:26:39;3.58;;;1.88;;
9773;SDS011;4926;42.670;23.316;2024-01-25T12:31:33;4.28;;;1.95;;
9773;SDS011;4926;42.670;23.316;2024-01-25T12:33:59;5.13;;;2.05;;
9773;SDS011;4926;42.670;23.316;2024-01-25T12:36:25;7.10;;;2.42;;
9773;SDS011;4926;42.670;23.316;2024-01-25T12:38:51;4.70;;;1.90;;
9773;SDS011;4926;42.670;23.316;2024-01-25T12:41:16;4.25;;;1.85;;
9773;SDS011;4926;42.670;23.316;2024-01-25T12:43:42;4.10;;;2.33;;
9773;SDS011;4926;42.670;23.316;2024-01-25T12:46:08;6.32;;;2.05;;
9773;SDS011;4926;42.670;23.316;2024-01-25T12:48:34;5.35;;;2.00;;
9773;SDS011;4926;42.670;23.316;2024-01-25T12:50:59;4.45;;;1.63;;
9773;SDS011;4926;42.670;23.316;2024-01-25T12:53:25;4.95;;;1.70;;
9773;SDS011;4926;42.670;23.316;2024-01-25T12:56:09;6.47;;;2.13;;
9773;SDS011;4926;42.670;23.316;2024-01-25T12:58:35;3.22;;;1.60;;
9773;SDS011;4926;42.670;23.316;2024-01-25T13:01:00;5.95;;;2.33;;
9773;SDS011;4926;42.670;23.316;2024-01-25T13:03:27;5.28;;;1.60;;
9773;SDS011;4926;42.670;23.316;2024-01-25T13:05:53;5.55;;;2.00;;
9773;SDS011;4926;42.670;23.316;2024-01-25T13:08:18;3.03;;;2.47;;
9773;SDS011;4926;42.670;23.316;2024-01-25T13:10:44;2.45;;;1.30;;
9773;SDS011;4926;42.670;23.316;2024-01-25T13:13:09;6.78;;;2.33;;
9773;SDS011;4926;42.670;23.316;2024-01-25T13:15:35;6.72;;;1.85;;
9773;SDS011;4926;42.670;23.316;2024-01-25T13:18:00;2.97;;;2.00;;
9773;SDS011;4926;42.670;23.316;2024-01-25T13:20:26;4.40;;;1.92;;
9773;SDS011;4926;42.670;23.316;2024-01-25T13:22:52;6.90;;;1.80;;
9773;SDS011;4926;42.670;23.316;2024-01-25T13:25:17;7.15;;;2.15;;
9773;SDS011;4926;42.670;23.316;2024-01-25T13:27:42;3.63;;;2.13;;
9773;SDS011;4926;42.670;23.316;2024-01-25T13:30:08;3.15;;;2.03;;
9773;SDS011;4926;42.670;23.316;2024-01-25T13:32:36;3.05;;;1.80;;
9773;SDS011;4926;42.670;23.316;2024-01-25T13:35:02;4.90;;;1.92;;
9773;SDS011;4926;42.670;23.316;2024-01-25T13:37:28;5.13;;;1.73;;
9773;SDS011;4926;42.670;23.316;2024-01-25T13:39:53;8.57;;;2.00;;
9773;SDS011;4926;42.670;23.316;2024-01-25T13:42:19;7.22;;;2.75;;
9773;SDS011;4926;42.670;23.316;2024-01-25T13:44:44;4.32;;;2.05;;
9773;SDS011;4926;42.670;23.316;2024-01-25T13:47:10;6.45;;;1.70;;
9773;SDS011;4926;42.670;23.316;2024-01-25T13:49:35;5.53;;;2.33;;
9773;SDS011;4926;42.670;23.316;2024-01-25T13:52:01;5.93;;;2.53;;
9773;SDS011;4926;42.670;23.316;2024-01-25T13:54:28;8.63;;;2.30;;
9773;SDS011;4926;42.670;23.316;2024-01-25T13:56:54;4.03;;;1.77;;
9773;SDS011;4926;42.670;23.316;2024-01-25T13:59:20;7.50;;;2.10;;
9773;SDS011;4926;42.670;23.316;2024-01-25T14:01:46;4.28;;;2.15;;
9773;SDS011;4926;42.670;23.316;2024-01-25T14:04:11;3.95;;;2.35;;
9773;SDS011;4926;42.670;23.316;2024-01-25T14:06:37;5.50;;;2.15;;
9773;SDS011;4926;42.670;23.316;2024-01-25T14:09:02;6.78;;;2.20;;
9773;SDS011;4926;42.670;23.316;2024-01-25T14:11:28;3.05;;;1.80;;
9773;SDS011;4926;42.670;23.316;2024-01-25T14:13:54;5.88;;;2.08;;
9773;SDS011;4926;42.670;23.316;2024-01-25T14:16:19;7.63;;;1.83;;
9773;SDS011;4926;42.670;23.316;2024-01-25T14:18:45;6.75;;;1.95;;
9773;SDS011;4926;42.670;23.316;2024-01-25T14:21:10;4.68;;;2.42;;
9773;SDS011;4926;42.670;23.316;2024-01-25T14:23:36;6.20;;;2.00;;
9773;SDS011;4926;42.670;23.316;2024-01-25T14:26:01;5.97;;;2.42;;
9773;SDS011;4926;42.670;23.316;2024-01-25T14:28:28;4.85;;;1.95;;
9773;SDS011;4926;42.670;23.316;2024-01-25T14:30:53;5.40;;;1.85;;
9773;SDS011;4926;42.670;23.316;2024-01-25T14:33:20;3.97;;;1.70;;
9773;SDS011;4926;42.670;23.316;2024-01-25T14:35:45;7.70;;;1.85;;
9773;SDS011;4926;42.670;23.316;2024-01-25T14:38:11;9.07;;;2.10;;
9773;SDS011;4926;42.670;23.316;2024-01-25T14:40:37;5.75;;;2.10;;
9773;SDS011;4926;42.670;23.316;2024-01-25T14:43:02;8.23;;;1.60;;
9773;SDS011;4926;42.670;23.316;2024-01-25T14:45:28;3.72;;;2.10;;
9773;SDS011;4926;42.670;23.316;2024-01-25T14:47:58;7.05;;;1.85;;
9773;SDS011;4926;42.670;23.316;2024-01-25T14:50:23;2.90;;;1.42;;
9773;SDS011;4926;42.670;23.316;2024-01-25T14:52:49;4.85;;;1.70;;
9773;SDS011;4926;42.670;23.316;2024-01-25T14:55:15;8.32;;;2.30;;
9773;SDS011;4926;42.670;23.316;2024-01-25T14:57:40;7.22;;;2.35;;
9773;SDS011;4926;42.670;23.316;2024-01-25T15:00:06;3.97;;;1.90;;
9773;SDS011;4926;42.670;23.316;2024-01-25T15:02:33;3.92;;;1.90;;
9773;SDS011;4926;42.670;23.316;2024-01-25T15:04:58;6.30;;;2.45;;
9773;SDS011;4926;42.670;23.316;2024-01-25T15:07:24;1.73;;;1.63;;
9773;SDS011;4926;42.670;23.316;2024-01-25T15:09:50;3.13;;;1.63;;